createdAt,value
2023-10-08T00:00:57.209Z,5.80
2023-10-08T00:03:24.069Z,5.53
2023-10-08T00:05:51.133Z,8.57
2023-10-08T00:08:18.342Z,7.07
2023-10-08T00:10:46.290Z,6.47
2023-10-08T00:13:14.344Z,6.18
2023-10-08T00:15:58.888Z,5.95
2023-10-08T00:18:25.439Z,8.60
2023-10-08T00:21:24.574Z,6.57
2023-10-08T00:23:53.534Z,5.90
2023-10-08T00:26:28.555Z,7.32
2023-10-08T00:28:57.710Z,7.90
2023-10-08T00:31:39.267Z,5.38
2023-10-08T00:34:15.358Z,8.38
2023-10-08T00:36:44.835Z,4.65
2023-10-08T00:39:15.782Z,9.40
2023-10-08T00:41:44.338Z,7.50
2023-10-08T00:44:17.223Z,7.63
2023-10-08T00:46:49.204Z,6.55
2023-10-08T00:49:23.583Z,5.80
2023-10-08T00:52:07.428Z,5.95
2023-10-08T00:54:34.307Z,6.85
2023-10-08T00:57:05.345Z,7.75
2023-10-08T00:59:45.694Z,6.28
2023-10-08T01:02:16.031Z,5.15
2023-10-08T01:04:45.318Z,4.45
2023-10-08T01:07:16.792Z,6.38
2023-10-08T01:09:44.367Z,5.50
2023-10-08T01:12:22.398Z,8.35
2023-10-08T01:14:54.849Z,7.22
2023-10-08T01:17:26.721Z,6.72
2023-10-08T01:20:13.307Z,7.55
2023-10-08T01:22:41.633Z,7.05
2023-10-08T01:25:11.445Z,5.40
2023-10-08T01:27:38.832Z,5.88
2023-10-08T01:30:16.325Z,4.93
2023-10-08T01:32:44.730Z,5.93
2023-10-08T01:35:37.914Z,6.72
2023-10-08T01:38:04.943Z,7.13
2023-10-08T01:40:32.011Z,7.13
2023-10-08T01:43:01.412Z,4.75
2023-10-08T01:45:27.938Z,8.18
2023-10-08T01:47:56.367Z,6.70
2023-10-08T01:50:23.393Z,6.57
2023-10-08T01:52:50.530Z,4.68
2023-10-08T01:55:20.839Z,10.15
2023-10-08T01:57:48.211Z,5.47
2023-10-08T02:00:15.921Z,6.55
2023-10-08T02:05:09.486Z,5.68
2023-10-08T02:07:36.095Z,5.57
2023-10-08T02:10:02.788Z,5.10
2023-10-08T02:12:29.498Z,7.10
2023-10-08T02:14:56.073Z,5.55
2023-10-08T02:17:23.932Z,5.00
2023-10-08T02:19:50.663Z,4.57
2023-10-08T02:22:17.224Z,6.88
2023-10-08T02:24:44.238Z,7.15
2023-10-08T02:27:11.649Z,6.15
2023-10-08T02:29:38.316Z,7.28
2023-10-08T02:32:05.978Z,6.50
2023-10-08T02:36:59.046Z,4.68
2023-10-08T02:39:28.792Z,4.90
2023-10-08T02:41:58.062Z,4.38
2023-10-08T02:44:25.016Z,7.32
2023-10-08T02:46:52.578Z,5.88
2023-10-08T02:51:55.920Z,6.47
2023-10-08T02:54:25.858Z,7.63
2023-10-08T02:56:56.572Z,8.27
2023-10-08T02:59:23.602Z,5.70
2023-10-08T03:01:51.193Z,5.13
2023-10-08T03:04:20.641Z,6.22
2023-10-08T03:06:50.472Z,7.43
2023-10-08T03:09:27.673Z,4.90
2023-10-08T03:11:54.818Z,7.22
2023-10-08T03:14:24.334Z,5.55
2023-10-08T03:16:54.539Z,5.43
2023-10-08T03:19:23.381Z,8.20
2023-10-08T03:21:57.647Z,6.13
2023-10-08T03:24:30.627Z,5.28
2023-10-08T03:27:07.838Z,5.25
2023-10-08T03:29:41.851Z,5.88
2023-10-08T03:32:19.073Z,4.63
2023-10-08T03:34:47.655Z,6.60
2023-10-08T03:37:23.386Z,4.00
2023-10-08T03:40:02.119Z,7.43
2023-10-08T03:42:35.978Z,6.57
2023-10-08T03:45:11.452Z,5.32
2023-10-08T03:47:39.410Z,6.13
2023-10-08T03:50:08.812Z,5.80
2023-10-08T03:52:38.231Z,5.25
2023-10-08T03:55:19.659Z,7.38
2023-10-08T03:57:58.139Z,7.13
2023-10-08T04:00:32.543Z,5.28
2023-10-08T04:03:06.852Z,6.47
2023-10-08T04:05:34.402Z,4.85
2023-10-08T04:08:00.968Z,3.20
2023-10-08T04:10:52.822Z,7.00
2023-10-08T04:13:19.638Z,6.05
2023-10-08T04:15:46.201Z,5.90
2023-10-08T04:18:14.900Z,4.05
2023-10-08T04:21:00.304Z,3.80
2023-10-08T04:23:27.386Z,7.30
2023-10-08T04:25:57.099Z,6.03
2023-10-08T04:28:29.654Z,4.60
2023-10-08T04:31:02.191Z,6.32
2023-10-08T04:33:35.225Z,4.85
2023-10-08T04:36:02.877Z,5.20
2023-10-08T04:38:30.127Z,5.45
2023-10-08T04:41:03.026Z,5.18
2023-10-08T04:43:31.811Z,6.00
2023-10-08T04:45:59.970Z,6.15
2023-10-08T04:48:30.884Z,4.80
2023-10-08T04:51:00.360Z,5.45
2023-10-08T04:53:38.241Z,7.05
2023-10-08T04:56:07.721Z,7.90
2023-10-08T04:58:37.619Z,6.68
2023-10-08T05:01:30.759Z,8.25
2023-10-08T05:03:58.340Z,5.63
2023-10-08T05:06:38.803Z,6.97
2023-10-08T05:09:13.004Z,5.68
2023-10-08T05:11:51.920Z,6.57
2023-10-08T05:14:35.937Z,6.25
2023-10-08T05:17:12.749Z,6.47
2023-10-08T05:19:41.158Z,7.60
2023-10-08T05:22:42.972Z,5.82
2023-10-08T05:25:29.933Z,5.28
2023-10-08T05:27:56.490Z,5.05
2023-10-08T05:30:54.416Z,5.13
2023-10-08T05:36:03.690Z,6.53
2023-10-08T05:38:31.812Z,4.95
2023-10-08T05:40:59.792Z,4.97
2023-10-08T05:43:39.486Z,5.10
2023-10-08T05:46:25.866Z,5.90
2023-10-08T05:49:09.708Z,6.18
2023-10-08T05:51:47.753Z,5.60
2023-10-08T05:54:28.453Z,5.70
2023-10-08T05:57:11.082Z,6.13
2023-10-08T05:59:53.767Z,6.60
2023-10-08T06:02:47.416Z,4.25
2023-10-08T06:05:14.683Z,6.30
2023-10-08T06:07:55.313Z,7.10
2023-10-08T06:13:17.899Z,6.78
2023-10-08T06:15:47.540Z,5.75
2023-10-08T06:18:15.759Z,5.32
2023-10-08T06:20:46.310Z,6.05
2023-10-08T06:23:20.210Z,8.90
2023-10-08T06:25:48.234Z,4.32
2023-10-08T06:28:16.956Z,7.57
2023-10-08T06:30:46.607Z,7.10
2023-10-08T06:33:15.019Z,3.63
2023-10-08T06:38:16.128Z,4.38
2023-10-08T06:40:44.162Z,5.88
2023-10-08T06:43:18.139Z,9.60
2023-10-08T06:45:47.745Z,6.82
2023-10-08T06:48:21.590Z,9.68
2023-10-08T06:50:50.099Z,7.30
2023-10-08T06:53:19.345Z,5.15
2023-10-08T06:55:49.118Z,7.70
2023-10-08T06:58:15.978Z,5.55
2023-10-08T07:00:51.241Z,7.20
2023-10-08T07:03:21.878Z,5.78
2023-10-08T07:06:00.715Z,7.13
2023-10-08T07:08:36.517Z,5.40
2023-10-08T07:11:07.845Z,6.75
2023-10-08T07:13:37.134Z,7.20
2023-10-08T07:16:05.454Z,8.52
2023-10-08T07:18:35.178Z,6.57
2023-10-08T07:21:13.021Z,7.15
2023-10-08T07:23:57.499Z,6.28
2023-10-08T07:26:26.694Z,8.02
2023-10-08T07:28:54.267Z,8.65
2023-10-08T07:31:23.628Z,7.57
2023-10-08T07:33:57.603Z,7.63
2023-10-08T07:36:27.910Z,10.90
2023-10-08T07:38:55.093Z,9.35
2023-10-08T07:41:21.798Z,10.43
2023-10-08T07:43:59.539Z,10.43
2023-10-08T07:46:27.618Z,7.70
2023-10-08T07:48:55.443Z,5.95
2023-10-08T07:53:57.328Z,8.75
2023-10-08T07:56:25.372Z,9.07
2023-10-08T07:58:58.019Z,7.50
2023-10-08T08:01:26.327Z,8.90
2023-10-08T08:03:53.178Z,9.30
2023-10-08T08:06:19.855Z,10.45
2023-10-08T08:08:46.476Z,11.10
2023-10-08T08:11:13.134Z,8.80
2023-10-08T08:13:45.930Z,9.30
2023-10-08T08:16:21.177Z,11.43
2023-10-08T08:18:58.586Z,10.23
2023-10-08T08:21:25.161Z,10.25
2023-10-08T08:23:51.807Z,10.60
2023-10-08T08:26:31.138Z,10.00
2023-10-08T08:29:01.099Z,8.25
2023-10-08T08:31:28.499Z,9.00
2023-10-08T08:33:57.670Z,7.25
2023-10-08T08:36:25.190Z,16.35
2023-10-08T08:38:52.378Z,10.05
2023-10-08T08:41:19.240Z,8.50
2023-10-08T08:43:50.789Z,9.32
2023-10-08T08:46:17.481Z,10.77
2023-10-08T08:48:48.080Z,8.88
2023-10-08T08:51:14.736Z,8.80
2023-10-08T08:53:42.556Z,8.93
2023-10-08T08:56:10.858Z,10.18
2023-10-08T08:58:39.183Z,11.50
2023-10-08T09:01:10.660Z,12.77
2023-10-08T09:03:38.533Z,8.18
2023-10-08T09:06:05.822Z,8.27
2023-10-08T09:08:36.936Z,7.35
2023-10-08T09:11:05.405Z,9.95
2023-10-08T09:13:34.118Z,10.35
2023-10-08T09:16:14.949Z,11.07
2023-10-08T09:18:51.348Z,8.02
2023-10-08T09:21:23.410Z,12.63
2023-10-08T09:23:51.823Z,9.85
2023-10-08T09:26:19.825Z,9.18
2023-10-08T09:28:50.685Z,8.02
2023-10-08T09:31:18.731Z,9.90
2023-10-08T09:33:55.772Z,10.40
2023-10-08T09:36:32.388Z,7.97
2023-10-08T09:39:01.931Z,8.75
2023-10-08T09:41:32.927Z,8.25
2023-10-08T09:44:00.249Z,8.27
2023-10-08T09:46:34.594Z,8.52
2023-10-08T09:49:02.725Z,9.57
2023-10-08T09:51:33.958Z,9.43
2023-10-08T09:54:15.298Z,9.38
2023-10-08T09:56:44.456Z,9.10
2023-10-08T09:59:11.699Z,7.63
2023-10-08T10:01:43.741Z,7.07
2023-10-08T10:04:12.405Z,6.03
2023-10-08T10:06:41.089Z,8.88
2023-10-08T10:09:16.995Z,7.93
2023-10-08T10:11:54.441Z,7.60
2023-10-08T10:14:25.977Z,10.30
2023-10-08T10:17:28.005Z,7.00
2023-10-08T10:20:04.499Z,7.28
2023-10-08T10:22:35.462Z,7.88
2023-10-08T10:25:16.162Z,7.55
2023-10-08T10:28:08.950Z,9.77
2023-10-08T10:30:35.742Z,5.90
2023-10-08T10:33:03.188Z,6.45
2023-10-08T10:35:30.277Z,6.57
2023-10-08T10:38:04.674Z,9.27
2023-10-08T10:40:40.722Z,5.25
2023-10-08T10:43:08.317Z,7.20
2023-10-08T10:45:37.974Z,7.20
2023-10-08T10:48:37.245Z,7.40
2023-10-08T10:51:07.112Z,8.07
2023-10-08T10:53:57.901Z,8.52
2023-10-08T10:56:40.991Z,8.82
2023-10-08T10:59:28.040Z,6.63
2023-10-08T11:02:07.618Z,9.68
2023-10-08T11:04:46.631Z,8.65
2023-10-08T11:07:13.621Z,8.32
2023-10-08T11:09:40.356Z,9.05
2023-10-08T11:12:12.606Z,6.72
2023-10-08T11:14:43.174Z,5.82
2023-10-08T11:17:18.528Z,7.43
2023-10-08T11:19:49.020Z,7.68
2023-10-08T11:22:19.684Z,5.95
2023-10-08T11:24:50.036Z,9.38
2023-10-08T11:27:37.082Z,8.98
2023-10-08T11:30:12.057Z,5.15
2023-10-08T11:32:39.896Z,7.80
2023-10-08T11:35:17.288Z,5.90
2023-10-08T11:37:52.292Z,6.57
2023-10-08T11:40:45.152Z,8.25
2023-10-08T11:43:17.019Z,5.65
2023-10-08T11:45:49.458Z,7.32
2023-10-08T11:48:23.266Z,9.30
2023-10-08T11:53:20.375Z,5.20
2023-10-08T11:55:49.199Z,6.40
2023-10-08T11:58:19.104Z,8.02
2023-10-08T12:00:47.103Z,8.10
2023-10-08T12:03:20.666Z,6.93
2023-10-08T12:05:49.151Z,10.73
2023-10-08T12:08:17.427Z,7.30
2023-10-08T12:10:48.337Z,6.55
2023-10-08T12:13:19.331Z,7.90
2023-10-08T12:15:48.530Z,7.60
2023-10-08T12:18:28.005Z,5.25
2023-10-08T12:20:56.410Z,6.38
2023-10-08T12:23:26.472Z,10.32
2023-10-08T12:25:57.324Z,7.68
2023-10-08T12:28:25.034Z,7.63
2023-10-08T12:33:21.720Z,5.15
2023-10-08T12:35:48.744Z,5.78
2023-10-08T12:38:16.050Z,7.35
2023-10-08T12:40:48.847Z,5.88
2023-10-08T12:43:20.445Z,5.47
2023-10-08T12:45:53.324Z,4.35
2023-10-08T12:48:29.166Z,5.65
2023-10-08T12:50:59.461Z,6.28
2023-10-08T12:53:37.412Z,7.10
2023-10-08T12:56:08.555Z,5.63
2023-10-08T12:58:45.730Z,3.80
2023-10-08T13:01:12.637Z,6.75
2023-10-08T13:03:43.057Z,6.75
2023-10-08T13:06:22.848Z,7.95
2023-10-08T13:08:54.122Z,5.03
2023-10-08T13:11:23.651Z,5.65
2023-10-08T13:13:54.832Z,4.50
2023-10-08T13:16:24.542Z,5.05
2023-10-08T13:18:52.124Z,7.25
2023-10-08T13:21:25.951Z,6.20
2023-10-08T13:23:53.706Z,5.72
2023-10-08T13:26:23.950Z,7.50
2023-10-08T13:28:50.616Z,4.18
2023-10-08T13:31:18.869Z,6.32
2023-10-08T13:33:50.017Z,7.80
2023-10-08T13:36:19.176Z,4.80
2023-10-08T13:38:50.063Z,7.10
2023-10-08T13:41:17.273Z,4.95
2023-10-08T13:43:47.883Z,5.25
2023-10-08T13:46:19.278Z,5.65
2023-10-08T13:48:49.388Z,3.92
2023-10-08T13:51:27.237Z,5.22
2023-10-08T13:54:01.102Z,5.53
2023-10-08T13:56:31.221Z,4.70
2023-10-08T13:59:05.257Z,7.03
2023-10-08T14:01:35.130Z,5.10
2023-10-08T14:04:09.251Z,7.00
2023-10-08T14:06:38.062Z,7.65
2023-10-08T14:09:13.568Z,8.20
2023-10-08T14:11:40.345Z,6.10
2023-10-08T14:14:12.673Z,6.40
2023-10-08T14:16:43.266Z,6.45
2023-10-08T14:19:14.707Z,5.50
2023-10-08T14:21:54.859Z,7.22
2023-10-08T14:24:21.833Z,3.25
2023-10-08T14:26:55.712Z,7.15
2023-10-08T14:29:25.670Z,5.40
2023-10-08T14:31:55.614Z,6.47
2023-10-08T14:34:42.201Z,4.18
2023-10-08T14:37:27.683Z,3.78
2023-10-08T14:40:13.031Z,4.43
2023-10-08T14:42:56.332Z,4.53
2023-10-08T14:45:27.964Z,8.20
2023-10-08T14:47:56.447Z,4.82
2023-10-08T14:50:24.660Z,4.28
2023-10-08T14:52:51.420Z,4.70
2023-10-08T14:55:18.093Z,4.95
2023-10-08T14:57:44.733Z,5.53
2023-10-08T15:00:11.970Z,3.40
2023-10-08T15:02:39.899Z,4.43
2023-10-08T15:05:07.341Z,4.93
2023-10-08T15:07:37.415Z,7.55
2023-10-08T15:10:04.368Z,5.60
2023-10-08T15:12:35.954Z,4.85
2023-10-08T15:15:13.751Z,3.97
2023-10-08T15:17:44.954Z,4.47
2023-10-08T15:20:15.704Z,6.53
2023-10-08T15:22:45.951Z,4.63
2023-10-08T15:25:14.276Z,5.35
2023-10-08T15:27:42.383Z,6.05
2023-10-08T15:30:13.184Z,6.90
2023-10-08T15:32:50.316Z,4.45
2023-10-08T15:35:25.416Z,4.53
2023-10-08T15:37:53.424Z,4.38
2023-10-08T15:40:21.065Z,4.30
2023-10-08T15:45:23.373Z,4.95
2023-10-08T15:47:51.269Z,6.95
2023-10-08T15:50:22.487Z,4.35
2023-10-08T15:52:50.683Z,4.05
2023-10-08T15:55:19.366Z,6.38
2023-10-08T15:57:46.025Z,6.85
2023-10-08T16:00:13.157Z,4.93
2023-10-08T16:02:39.898Z,5.97
2023-10-08T16:05:09.227Z,8.98
2023-10-08T16:07:36.244Z,4.80
2023-10-08T16:10:03.333Z,5.00
2023-10-08T16:12:30.031Z,5.40
2023-10-08T16:14:56.642Z,5.70
2023-10-08T16:17:24.837Z,5.80
2023-10-08T16:19:52.567Z,7.38
2023-10-08T16:22:19.535Z,8.48
2023-10-08T16:24:46.118Z,10.35
2023-10-08T16:27:12.726Z,7.10
2023-10-08T16:29:39.331Z,10.52
2023-10-08T16:32:08.082Z,5.32
2023-10-08T16:34:38.121Z,5.18
2023-10-08T16:37:04.871Z,6.88
2023-10-08T16:39:32.226Z,5.45
2023-10-08T16:41:59.208Z,7.38
2023-10-08T16:44:25.954Z,7.32
2023-10-08T16:46:52.908Z,4.55
2023-10-08T16:49:22.043Z,6.35
2023-10-08T16:51:48.974Z,6.72
2023-10-08T16:54:16.881Z,7.72
2023-10-08T16:56:45.292Z,8.75
2023-10-08T16:59:15.563Z,7.18
2023-10-08T17:01:45.387Z,8.00
2023-10-08T17:04:13.810Z,8.90
2023-10-08T17:06:41.054Z,8.82
2023-10-08T17:09:15.717Z,8.32
2023-10-08T17:11:50.303Z,8.73
2023-10-08T17:14:19.110Z,7.38
2023-10-08T17:16:46.346Z,7.32
2023-10-08T17:19:13.322Z,8.55
2023-10-08T17:21:40.577Z,8.13
2023-10-08T17:24:10.806Z,7.90
2023-10-08T17:26:38.798Z,7.15
2023-10-08T17:29:09.346Z,5.55
2023-10-08T17:31:38.192Z,9.55
2023-10-08T17:34:07.036Z,8.32
2023-10-08T17:36:35.243Z,7.75
2023-10-08T17:39:10.010Z,7.57
2023-10-08T17:41:37.376Z,8.50
2023-10-08T17:44:05.039Z,6.70
2023-10-08T17:46:31.975Z,7.82
2023-10-08T17:48:59.308Z,11.07
2023-10-08T17:51:26.343Z,10.02
2023-10-08T17:53:53.305Z,8.77
2023-10-08T17:56:19.992Z,9.98
2023-10-08T17:58:47.352Z,10.05
2023-10-08T18:01:15.414Z,8.50
2023-10-08T18:03:45.594Z,10.02
2023-10-08T18:06:15.662Z,7.03
2023-10-08T18:08:50.736Z,7.97
2023-10-08T18:11:23.758Z,9.18
2023-10-08T18:13:51.481Z,10.65
2023-10-08T18:16:18.874Z,12.18
2023-10-08T18:18:46.442Z,9.13
2023-10-08T18:21:17.905Z,8.77
2023-10-08T18:23:47.921Z,9.63
2023-10-08T18:26:16.324Z,10.38
2023-10-08T18:28:45.053Z,8.18
2023-10-08T18:31:13.442Z,8.23
2023-10-08T18:33:42.278Z,10.23
2023-10-08T18:36:11.046Z,7.78
2023-10-08T18:38:40.515Z,9.02
2023-10-08T18:41:10.370Z,11.10
2023-10-08T18:43:37.524Z,8.43
2023-10-08T18:46:15.318Z,8.13
2023-10-08T18:48:42.955Z,8.63
2023-10-08T18:53:41.866Z,8.02
2023-10-08T18:56:12.140Z,8.13
2023-10-08T18:58:40.006Z,8.82
2023-10-08T19:01:08.222Z,8.57
2023-10-08T19:03:37.827Z,8.57
2023-10-08T19:06:07.071Z,9.90
2023-10-08T19:08:37.321Z,6.60
2023-10-08T19:11:09.021Z,8.07
2023-10-08T19:13:43.581Z,7.63
2023-10-08T19:16:12.167Z,7.95
2023-10-08T19:18:42.688Z,11.80
2023-10-08T19:21:15.760Z,10.63
2023-10-08T19:23:42.451Z,8.55
2023-10-08T19:26:09.117Z,9.57
2023-10-08T19:28:36.592Z,9.85
2023-10-08T19:31:09.290Z,9.45
2023-10-08T19:33:36.315Z,9.52
2023-10-08T19:36:04.487Z,8.00
2023-10-08T19:38:31.370Z,7.03
2023-10-08T19:40:58.650Z,7.00
2023-10-08T19:43:25.275Z,8.27
2023-10-08T19:45:52.245Z,9.25
2023-10-08T19:48:19.513Z,6.82
2023-10-08T19:50:47.841Z,10.30
2023-10-08T19:53:15.952Z,9.00
2023-10-08T19:55:50.523Z,10.65
2023-10-08T19:58:17.688Z,8.85
2023-10-08T20:00:48.724Z,8.23
2023-10-08T20:03:15.913Z,9.15
2023-10-08T20:05:44.081Z,10.23
2023-10-08T20:08:14.151Z,9.00
2023-10-08T20:10:42.138Z,9.20
2023-10-08T20:13:10.549Z,8.02
2023-10-08T20:15:38.547Z,10.07
2023-10-08T20:18:09.045Z,12.90
2023-10-08T20:20:37.270Z,11.75
2023-10-08T20:23:06.567Z,19.35
2023-10-08T20:25:38.931Z,28.70
2023-10-08T20:28:07.141Z,27.13
2023-10-08T20:30:37.190Z,22.00
2023-10-08T20:33:11.122Z,25.73
2023-10-08T20:35:44.328Z,20.95
2023-10-08T20:38:14.398Z,23.13
2023-10-08T20:40:43.910Z,21.90
2023-10-08T20:43:11.765Z,21.80
2023-10-08T20:48:13.240Z,23.13
2023-10-08T20:50:40.002Z,18.65
2023-10-08T20:53:06.674Z,21.92
2023-10-08T20:55:36.033Z,22.40
2023-10-08T20:58:03.010Z,20.85
2023-10-08T21:00:35.962Z,18.88
2023-10-08T21:03:09.322Z,20.80
2023-10-08T21:05:39.476Z,20.35
2023-10-08T21:08:09.747Z,20.92
2023-10-08T21:13:09.620Z,19.40
2023-10-08T21:15:37.372Z,20.25
2023-10-08T21:18:08.440Z,17.88
2023-10-08T21:20:35.229Z,20.08
2023-10-08T21:23:07.888Z,19.17
2023-10-08T21:25:34.852Z,24.25
2023-10-08T21:28:02.215Z,29.58
2023-10-08T21:30:29.498Z,23.75
2023-10-08T21:32:57.448Z,21.23
2023-10-08T21:35:24.644Z,19.80
2023-10-08T21:37:52.445Z,24.10
2023-10-08T21:40:21.616Z,22.45
2023-10-08T21:42:52.860Z,22.95
2023-10-08T21:45:20.453Z,23.58
2023-10-08T21:47:48.680Z,21.05
2023-10-08T21:50:17.736Z,21.10
2023-10-08T21:52:48.510Z,21.33
2023-10-08T21:55:19.551Z,22.08
2023-10-08T21:57:48.714Z,24.20
2023-10-08T22:00:22.467Z,25.70
2023-10-08T22:05:30.669Z,18.38
2023-10-08T22:08:04.809Z,17.02
2023-10-08T22:10:34.839Z,25.40
2023-10-08T22:13:05.131Z,20.55
2023-10-08T22:15:31.884Z,22.45
2023-10-08T22:18:03.096Z,20.33
2023-10-08T22:20:39.537Z,18.98
2023-10-08T22:23:16.706Z,22.55
2023-10-08T22:25:48.373Z,20.83
2023-10-08T22:28:21.669Z,21.23
2023-10-08T22:30:51.565Z,16.35
2023-10-08T22:33:27.618Z,19.95
2023-10-08T22:35:59.038Z,19.08
2023-10-08T22:38:30.404Z,18.45
2023-10-08T22:40:57.334Z,18.95
2023-10-08T22:43:24.372Z,18.33
2023-10-08T22:45:52.277Z,20.38
2023-10-08T22:48:36.923Z,19.00
2023-10-08T22:51:10.890Z,17.48
2023-10-08T22:53:44.445Z,13.98
2023-10-08T22:56:12.071Z,16.98
2023-10-08T23:01:16.021Z,16.85
2023-10-08T23:03:47.549Z,15.68
2023-10-08T23:06:16.353Z,13.55
2023-10-08T23:08:44.374Z,18.23
2023-10-08T23:11:16.085Z,10.13
2023-10-08T23:13:43.986Z,17.25
2023-10-08T23:16:15.807Z,13.63
2023-10-08T23:18:44.295Z,12.15
2023-10-08T23:21:12.905Z,12.57
2023-10-08T23:23:40.285Z,13.63
2023-10-08T23:26:11.326Z,11.50
2023-10-08T23:28:39.130Z,13.45
2023-10-08T23:33:48.146Z,10.70
2023-10-08T23:36:17.243Z,11.77
2023-10-08T23:38:53.598Z,11.38
2023-10-08T23:41:24.942Z,11.52
2023-10-08T23:43:57.516Z,12.70
2023-10-08T23:46:33.176Z,14.77
2023-10-08T23:49:15.953Z,14.15
2023-10-08T23:51:43.381Z,10.38
2023-10-08T23:54:15.812Z,12.45
2023-10-08T23:56:46.463Z,15.40
2023-10-08T23:59:18.193Z,11.32
